sensor_id;sensor_type;location;lat;lon;timestamp;P1;durP1;ratioP1;P2;durP2;ratioP2
76701;SDS011;70097;44.536;0.146;2023-12-20T00:04:01;91.80;;;32.50;;
76701;SDS011;70097;44.536;0.146;2023-12-20T00:09:33;113.63;;;36.57;;
76701;SDS011;70097;44.536;0.146;2023-12-20T00:15:06;123.73;;;35.17;;
76701;SDS011;70097;44.536;0.146;2023-12-20T00:20:40;94.93;;;31.00;;
76701;SDS011;70097;44.536;0.146;2023-12-20T00:26:13;193.60;;;35.60;;
76701;SDS011;70097;44.536;0.146;2023-12-20T00:31:45;337.63;;;43.07;;
76701;SDS011;70097;44.536;0.146;2023-12-20T00:37:18;521.47;;;47.60;;
76701;SDS011;70097;44.536;0.146;2023-12-20T00:42:50;629.10;;;55.23;;
76701;SDS011;70097;44.536;0.146;2023-12-20T00:48:22;614.83;;;57.47;;
76701;SDS011;70097;44.536;0.146;2023-12-20T00:53:56;642.37;;;54.90;;
76701;SDS011;70097;44.536;0.146;2023-12-20T00:59:28;700.07;;;55.53;;
76701;SDS011;70097;44.536;0.146;2023-12-20T01:05:00;575.83;;;46.50;;
76701;SDS011;70097;44.536;0.146;2023-12-20T01:10:33;660.33;;;56.10;;
76701;SDS011;70097;44.536;0.146;2023-12-20T01:16:06;549.87;;;37.27;;
76701;SDS011;70097;44.536;0.146;2023-12-20T01:21:39;493.77;;;35.77;;
76701;SDS011;70097;44.536;0.146;2023-12-20T01:27:12;601.70;;;45.20;;
76701;SDS011;70097;44.536;0.146;2023-12-20T01:32:44;702.77;;;50.93;;
76701;SDS011;70097;44.536;0.146;2023-12-20T01:38:18;301.57;;;36.10;;
76701;SDS011;70097;44.536;0.146;2023-12-20T01:43:51;50.30;;;17.23;;
76701;SDS011;70097;44.536;0.146;2023-12-20T01:49:23;133.80;;;26.80;;
76701;SDS011;70097;44.536;0.146;2023-12-20T01:54:56;32.13;;;14.30;;
76701;SDS011;70097;44.536;0.146;2023-12-20T02:00:29;32.60;;;15.93;;
76701;SDS011;70097;44.536;0.146;2023-12-20T02:06:01;31.77;;;14.10;;
76701;SDS011;70097;44.536;0.146;2023-12-20T02:11:35;29.73;;;13.13;;
76701;SDS011;70097;44.536;0.146;2023-12-20T02:17:08;24.07;;;12.13;;
76701;SDS011;70097;44.536;0.146;2023-12-20T02:22:41;23.30;;;11.27;;
76701;SDS011;70097;44.536;0.146;2023-12-20T02:28:13;25.80;;;11.07;;
76701;SDS011;70097;44.536;0.146;2023-12-20T02:33:45;21.73;;;11.70;;
76701;SDS011;70097;44.536;0.146;2023-12-20T02:39:18;18.17;;;10.13;;
76701;SDS011;70097;44.536;0.146;2023-12-20T02:44:51;21.37;;;9.63;;
76701;SDS011;70097;44.536;0.146;2023-12-20T02:50:23;18.10;;;9.57;;
76701;SDS011;70097;44.536;0.146;2023-12-20T02:55:57;16.77;;;8.93;;
76701;SDS011;70097;44.536;0.146;2023-12-20T03:01:29;20.27;;;9.77;;
76701;SDS011;70097;44.536;0.146;2023-12-20T03:07:02;22.73;;;10.27;;
76701;SDS011;70097;44.536;0.146;2023-12-20T03:12:35;29.83;;;11.47;;
76701;SDS011;70097;44.536;0.146;2023-12-20T03:18:09;24.30;;;9.30;;
76701;SDS011;70097;44.536;0.146;2023-12-20T03:23:43;34.47;;;11.77;;
76701;SDS011;70097;44.536;0.146;2023-12-20T03:29:15;33.30;;;12.33;;
76701;SDS011;70097;44.536;0.146;2023-12-20T03:34:48;33.13;;;11.30;;
76701;SDS011;70097;44.536;0.146;2023-12-20T03:40:21;115.43;;;18.67;;
76701;SDS011;70097;44.536;0.146;2023-12-20T03:45:54;237.17;;;22.30;;
76701;SDS011;70097;44.536;0.146;2023-12-20T03:51:28;39.13;;;14.70;;
76701;SDS011;70097;44.536;0.146;2023-12-20T03:57:01;25.03;;;11.10;;
76701;SDS011;70097;44.536;0.146;2023-12-20T04:02:33;19.90;;;9.07;;
76701;SDS011;70097;44.536;0.146;2023-12-20T04:08:07;8.77;;;5.17;;
76701;SDS011;70097;44.536;0.146;2023-12-20T04:13:40;6.83;;;3.80;;
76701;SDS011;70097;44.536;0.146;2023-12-20T04:19:14;2.73;;;1.70;;
76701;SDS011;70097;44.536;0.146;2023-12-20T04:24:46;3.83;;;2.23;;
76701;SDS011;70097;44.536;0.146;2023-12-20T04:30:19;3.10;;;1.90;;
76701;SDS011;70097;44.536;0.146;2023-12-20T04:35:53;4.17;;;1.90;;
76701;SDS011;70097;44.536;0.146;2023-12-20T04:41:26;5.60;;;1.73;;
76701;SDS011;70097;44.536;0.146;2023-12-20T04:46:59;3.27;;;2.00;;
76701;SDS011;70097;44.536;0.146;2023-12-20T04:52:32;2.63;;;1.80;;
76701;SDS011;70097;44.536;0.146;2023-12-20T04:58:05;4.17;;;2.33;;
76701;SDS011;70097;44.536;0.146;2023-12-20T05:03:39;3.80;;;2.27;;
76701;SDS011;70097;44.536;0.146;2023-12-20T05:09:11;5.50;;;2.60;;
76701;SDS011;70097;44.536;0.146;2023-12-20T05:14:43;4.30;;;2.23;;
76701;SDS011;70097;44.536;0.146;2023-12-20T05:20:16;5.27;;;3.00;;
76701;SDS011;70097;44.536;0.146;2023-12-20T05:25:48;5.63;;;2.23;;
76701;SDS011;70097;44.536;0.146;2023-12-20T05:31:21;7.57;;;4.37;;
76701;SDS011;70097;44.536;0.146;2023-12-20T05:36:54;3.77;;;2.17;;
76701;SDS011;70097;44.536;0.146;2023-12-20T05:42:27;4.80;;;2.20;;
76701;SDS011;70097;44.536;0.146;2023-12-20T05:48:01;4.03;;;2.00;;
76701;SDS011;70097;44.536;0.146;2023-12-20T05:53:33;3.80;;;2.10;;
76701;SDS011;70097;44.536;0.146;2023-12-20T05:59:05;3.90;;;2.00;;
76701;SDS011;70097;44.536;0.146;2023-12-20T06:04:37;3.80;;;2.03;;
76701;SDS011;70097;44.536;0.146;2023-12-20T06:10:10;3.70;;;2.00;;
76701;SDS011;70097;44.536;0.146;2023-12-20T06:15:44;6.20;;;2.10;;
76701;SDS011;70097;44.536;0.146;2023-12-20T06:21:16;4.87;;;2.20;;
76701;SDS011;70097;44.536;0.146;2023-12-20T06:26:49;3.23;;;2.20;;
76701;SDS011;70097;44.536;0.146;2023-12-20T06:32:22;7.03;;;2.30;;
76701;SDS011;70097;44.536;0.146;2023-12-20T06:37:55;5.70;;;1.83;;
76701;SDS011;70097;44.536;0.146;2023-12-20T06:43:28;4.37;;;1.50;;
76701;SDS011;70097;44.536;0.146;2023-12-20T06:49:01;4.30;;;1.30;;
76701;SDS011;70097;44.536;0.146;2023-12-20T06:54:33;3.80;;;1.90;;
76701;SDS011;70097;44.536;0.146;2023-12-20T07:00:06;4.27;;;1.40;;
76701;SDS011;70097;44.536;0.146;2023-12-20T07:05:39;5.13;;;1.70;;
76701;SDS011;70097;44.536;0.146;2023-12-20T07:11:12;2.80;;;1.27;;
76701;SDS011;70097;44.536;0.146;2023-12-20T07:16:44;5.97;;;1.70;;
76701;SDS011;70097;44.536;0.146;2023-12-20T07:22:17;7.47;;;1.70;;
76701;SDS011;70097;44.536;0.146;2023-12-20T07:27:50;3.87;;;1.80;;
76701;SDS011;70097;44.536;0.146;2023-12-20T07:33:24;11.37;;;1.50;;
76701;SDS011;70097;44.536;0.146;2023-12-20T07:38:57;10.73;;;2.10;;
76701;SDS011;70097;44.536;0.146;2023-12-20T07:44:29;10.97;;;2.07;;
76701;SDS011;70097;44.536;0.146;2023-12-20T07:50:03;4.63;;;2.20;;
76701;SDS011;70097;44.536;0.146;2023-12-20T07:55:35;12.23;;;2.40;;
76701;SDS011;70097;44.536;0.146;2023-12-20T08:01:09;11.73;;;2.80;;
76701;SDS011;70097;44.536;0.146;2023-12-20T08:06:42;8.97;;;2.30;;
76701;SDS011;70097;44.536;0.146;2023-12-20T08:12:15;4.17;;;1.00;;
76701;SDS011;70097;44.536;0.146;2023-12-20T08:17:48;8.20;;;1.23;;
76701;SDS011;70097;44.536;0.146;2023-12-20T08:23:22;4.40;;;1.17;;
76701;SDS011;70097;44.536;0.146;2023-12-20T08:28:54;6.07;;;1.07;;
76701;SDS011;70097;44.536;0.146;2023-12-20T08:34:27;3.87;;;0.80;;
76701;SDS011;70097;44.536;0.146;2023-12-20T08:40:00;7.00;;;1.47;;
76701;SDS011;70097;44.536;0.146;2023-12-20T08:45:33;5.13;;;1.60;;
76701;SDS011;70097;44.536;0.146;2023-12-20T08:51:05;11.77;;;1.57;;
76701;SDS011;70097;44.536;0.146;2023-12-20T08:56:38;11.67;;;1.70;;
76701;SDS011;70097;44.536;0.146;2023-12-20T09:02:11;7.47;;;1.37;;
76701;SDS011;70097;44.536;0.146;2023-12-20T09:07:44;9.60;;;1.83;;
76701;SDS011;70097;44.536;0.146;2023-12-20T09:13:17;4.10;;;1.00;;
76701;SDS011;70097;44.536;0.146;2023-12-20T09:18:50;5.40;;;1.20;;
76701;SDS011;70097;44.536;0.146;2023-12-20T09:24:22;17.90;;;1.50;;
76701;SDS011;70097;44.536;0.146;2023-12-20T09:29:56;11.73;;;1.73;;
76701;SDS011;70097;44.536;0.146;2023-12-20T09:35:28;10.30;;;1.93;;
76701;SDS011;70097;44.536;0.146;2023-12-20T09:41:02;4.50;;;1.50;;
76701;SDS011;70097;44.536;0.146;2023-12-20T09:46:35;3.80;;;0.70;;
76701;SDS011;70097;44.536;0.146;2023-12-20T09:52:09;6.03;;;1.33;;
76701;SDS011;70097;44.536;0.146;2023-12-20T09:57:42;8.73;;;1.93;;
76701;SDS011;70097;44.536;0.146;2023-12-20T10:03:16;8.77;;;1.57;;
76701;SDS011;70097;44.536;0.146;2023-12-20T10:08:48;9.47;;;1.27;;
76701;SDS011;70097;44.536;0.146;2023-12-20T10:14:20;9.63;;;1.80;;
76701;SDS011;70097;44.536;0.146;2023-12-20T10:19:54;7.73;;;1.50;;
76701;SDS011;70097;44.536;0.146;2023-12-20T10:25:28;8.80;;;1.97;;
76701;SDS011;70097;44.536;0.146;2023-12-20T10:31:01;6.20;;;1.17;;
76701;SDS011;70097;44.536;0.146;2023-12-20T10:36:34;10.23;;;1.40;;
76701;SDS011;70097;44.536;0.146;2023-12-20T10:42:09;6.70;;;1.97;;
76701;SDS011;70097;44.536;0.146;2023-12-20T10:47:41;16.40;;;3.10;;
76701;SDS011;70097;44.536;0.146;2023-12-20T10:53:14;7.27;;;1.63;;
76701;SDS011;70097;44.536;0.146;2023-12-20T10:58:46;7.77;;;1.30;;
76701;SDS011;70097;44.536;0.146;2023-12-20T11:04:19;8.37;;;1.53;;
76701;SDS011;70097;44.536;0.146;2023-12-20T11:09:56;6.17;;;1.67;;
76701;SDS011;70097;44.536;0.146;2023-12-20T11:15:24;9.40;;;1.67;;
76701;SDS011;70097;44.536;0.146;2023-12-20T11:21:00;8.33;;;1.70;;
76701;SDS011;70097;44.536;0.146;2023-12-20T11:26:31;8.60;;;1.30;;
76701;SDS011;70097;44.536;0.146;2023-12-20T11:32:27;7.67;;;1.77;;
76701;SDS011;70097;44.536;0.146;2023-12-20T11:37:37;4.47;;;0.90;;
76701;SDS011;70097;44.536;0.146;2023-12-20T11:43:09;6.63;;;1.30;;
76701;SDS011;70097;44.536;0.146;2023-12-20T11:48:41;10.93;;;1.30;;
76701;SDS011;70097;44.536;0.146;2023-12-20T11:54:14;7.50;;;1.87;;
76701;SDS011;70097;44.536;0.146;2023-12-20T11:59:46;5.27;;;1.20;;
76701;SDS011;70097;44.536;0.146;2023-12-20T12:05:20;8.53;;;1.57;;
76701;SDS011;70097;44.536;0.146;2023-12-20T12:10:53;7.57;;;1.67;;
76701;SDS011;70097;44.536;0.146;2023-12-20T12:16:26;4.13;;;0.90;;
76701;SDS011;70097;44.536;0.146;2023-12-20T12:27:31;4.50;;;0.80;;
76701;SDS011;70097;44.536;0.146;2023-12-20T12:33:04;6.03;;;0.97;;
76701;SDS011;70097;44.536;0.146;2023-12-20T12:38:36;7.77;;;1.07;;
76701;SDS011;70097;44.536;0.146;2023-12-20T12:44:09;7.23;;;1.00;;
76701;SDS011;70097;44.536;0.146;2023-12-20T12:49:42;4.23;;;1.10;;
76701;SDS011;70097;44.536;0.146;2023-12-20T12:55:16;8.30;;;1.50;;
76701;SDS011;70097;44.536;0.146;2023-12-20T13:00:49;2.80;;;1.00;;
76701;SDS011;70097;44.536;0.146;2023-12-20T13:06:23;4.47;;;0.93;;
76701;SDS011;70097;44.536;0.146;2023-12-20T13:11:56;3.80;;;1.10;;
76701;SDS011;70097;44.536;0.146;2023-12-20T13:17:28;3.93;;;0.93;;
76701;SDS011;70097;44.536;0.146;2023-12-20T13:23:02;6.97;;;1.50;;
76701;SDS011;70097;44.536;0.146;2023-12-20T13:28:35;6.77;;;1.40;;
76701;SDS011;70097;44.536;0.146;2023-12-20T13:34:06;10.07;;;1.40;;
76701;SDS011;70097;44.536;0.146;2023-12-20T13:39:40;6.80;;;1.90;;
76701;SDS011;70097;44.536;0.146;2023-12-20T13:45:11;7.40;;;1.00;;
76701;SDS011;70097;44.536;0.146;2023-12-20T13:50:45;5.93;;;1.27;;
76701;SDS011;70097;44.536;0.146;2023-12-20T13:56:18;9.43;;;1.97;;
76701;SDS011;70097;44.536;0.146;2023-12-20T14:01:50;4.97;;;1.77;;
76701;SDS011;70097;44.536;0.146;2023-12-20T14:07:24;7.77;;;1.37;;
76701;SDS011;70097;44.536;0.146;2023-12-20T14:12:56;4.33;;;1.13;;
76701;SDS011;70097;44.536;0.146;2023-12-20T14:18:29;11.70;;;2.30;;
76701;SDS011;70097;44.536;0.146;2023-12-20T14:24:02;15.43;;;1.73;;
76701;SDS011;70097;44.536;0.146;2023-12-20T14:29:35;4.33;;;1.30;;
76701;SDS011;70097;44.536;0.146;2023-12-20T14:35:08;4.77;;;1.23;;
76701;SDS011;70097;44.536;0.146;2023-12-20T14:40:40;4.07;;;1.73;;
76701;SDS011;70097;44.536;0.146;2023-12-20T14:46:13;12.50;;;1.70;;
76701;SDS011;70097;44.536;0.146;2023-12-20T14:51:47;5.60;;;1.37;;
76701;SDS011;70097;44.536;0.146;2023-12-20T14:57:19;3.67;;;0.90;;
76701;SDS011;70097;44.536;0.146;2023-12-20T15:02:51;7.20;;;1.73;;
76701;SDS011;70097;44.536;0.146;2023-12-20T15:08:25;9.23;;;1.40;;
76701;SDS011;70097;44.536;0.146;2023-12-20T15:13:58;5.23;;;1.07;;
76701;SDS011;70097;44.536;0.146;2023-12-20T15:19:30;6.20;;;1.33;;
76701;SDS011;70097;44.536;0.146;2023-12-20T15:25:02;6.83;;;1.30;;
76701;SDS011;70097;44.536;0.146;2023-12-20T15:30:34;7.43;;;1.07;;
76701;SDS011;70097;44.536;0.146;2023-12-20T15:36:08;5.67;;;1.00;;
76701;SDS011;70097;44.536;0.146;2023-12-20T15:41:41;12.20;;;2.87;;
76701;SDS011;70097;44.536;0.146;2023-12-20T15:47:13;16.80;;;1.70;;
76701;SDS011;70097;44.536;0.146;2023-12-20T15:52:46;18.53;;;2.03;;
76701;SDS011;70097;44.536;0.146;2023-12-20T15:58:18;8.50;;;1.90;;
76701;SDS011;70097;44.536;0.146;2023-12-20T16:03:51;5.07;;;1.50;;
76701;SDS011;70097;44.536;0.146;2023-12-20T16:09:24;11.93;;;2.30;;
76701;SDS011;70097;44.536;0.146;2023-12-20T16:14:58;11.80;;;4.17;;
76701;SDS011;70097;44.536;0.146;2023-12-20T16:20:30;5.03;;;1.80;;
76701;SDS011;70097;44.536;0.146;2023-12-20T16:26:04;11.20;;;2.00;;
76701;SDS011;70097;44.536;0.146;2023-12-20T16:31:36;11.37;;;2.40;;
76701;SDS011;70097;44.536;0.146;2023-12-20T16:37:09;11.77;;;2.40;;
76701;SDS011;70097;44.536;0.146;2023-12-20T16:42:43;9.97;;;1.90;;
76701;SDS011;70097;44.536;0.146;2023-12-20T16:48:15;9.97;;;2.33;;
76701;SDS011;70097;44.536;0.146;2023-12-20T16:53:48;14.57;;;2.20;;
76701;SDS011;70097;44.536;0.146;2023-12-20T16:59:21;9.37;;;2.63;;
76701;SDS011;70097;44.536;0.146;2023-12-20T17:04:53;19.07;;;2.80;;
76701;SDS011;70097;44.536;0.146;2023-12-20T17:10:27;8.97;;;4.43;;
76701;SDS011;70097;44.536;0.146;2023-12-20T17:15:59;12.03;;;3.93;;
76701;SDS011;70097;44.536;0.146;2023-12-20T17:21:31;7.17;;;2.20;;
76701;SDS011;70097;44.536;0.146;2023-12-20T17:27:03;11.83;;;4.00;;
76701;SDS011;70097;44.536;0.146;2023-12-20T17:32:36;6.53;;;2.43;;
76701;SDS011;70097;44.536;0.146;2023-12-20T17:38:09;14.03;;;2.97;;
76701;SDS011;70097;44.536;0.146;2023-12-20T17:43:42;13.73;;;4.50;;
76701;SDS011;70097;44.536;0.146;2023-12-20T17:49:16;14.47;;;6.60;;
76701;SDS011;70097;44.536;0.146;2023-12-20T17:54:49;11.03;;;5.67;;
76701;SDS011;70097;44.536;0.146;2023-12-20T18:00:24;17.50;;;5.23;;
76701;SDS011;70097;44.536;0.146;2023-12-20T18:05:55;13.77;;;2.43;;
76701;SDS011;70097;44.536;0.146;2023-12-20T18:11:29;9.63;;;2.13;;
76701;SDS011;70097;44.536;0.146;2023-12-20T18:17:02;12.77;;;3.30;;
76701;SDS011;70097;44.536;0.146;2023-12-20T18:22:35;8.83;;;2.30;;
76701;SDS011;70097;44.536;0.146;2023-12-20T18:28:08;9.83;;;2.60;;
76701;SDS011;70097;44.536;0.146;2023-12-20T18:33:41;8.63;;;2.40;;
76701;SDS011;70097;44.536;0.146;2023-12-20T18:39:14;10.90;;;2.60;;
76701;SDS011;70097;44.536;0.146;2023-12-20T18:44:47;8.47;;;2.90;;
76701;SDS011;70097;44.536;0.146;2023-12-20T18:50:21;10.40;;;2.67;;
76701;SDS011;70097;44.536;0.146;2023-12-20T18:55:55;11.83;;;3.30;;
76701;SDS011;70097;44.536;0.146;2023-12-20T19:01:27;12.83;;;3.17;;
76701;SDS011;70097;44.536;0.146;2023-12-20T19:07:00;8.97;;;2.70;;
76701;SDS011;70097;44.536;0.146;2023-12-20T19:12:33;23.27;;;3.77;;
76701;SDS011;70097;44.536;0.146;2023-12-20T19:18:05;7.40;;;3.00;;
76701;SDS011;70097;44.536;0.146;2023-12-20T19:23:39;10.13;;;2.50;;
76701;SDS011;70097;44.536;0.146;2023-12-20T19:29:12;9.80;;;2.67;;
76701;SDS011;70097;44.536;0.146;2023-12-20T19:34:45;16.73;;;3.27;;
76701;SDS011;70097;44.536;0.146;2023-12-20T19:40:18;9.00;;;2.57;;
76701;SDS011;70097;44.536;0.146;2023-12-20T19:45:52;12.13;;;2.10;;
76701;SDS011;70097;44.536;0.146;2023-12-20T19:51:24;7.87;;;1.80;;
76701;SDS011;70097;44.536;0.146;2023-12-20T19:56:56;8.43;;;2.60;;
76701;SDS011;70097;44.536;0.146;2023-12-20T20:02:29;8.87;;;1.90;;
76701;SDS011;70097;44.536;0.146;2023-12-20T20:08:03;16.73;;;5.93;;
76701;SDS011;70097;44.536;0.146;2023-12-20T20:13:35;26.27;;;7.07;;
76701;SDS011;70097;44.536;0.146;2023-12-20T20:19:08;13.13;;;5.43;;
76701;SDS011;70097;44.536;0.146;2023-12-20T20:24:40;14.97;;;3.83;;
76701;SDS011;70097;44.536;0.146;2023-12-20T20:30:12;12.23;;;3.90;;
76701;SDS011;70097;44.536;0.146;2023-12-20T20:35:46;8.20;;;2.47;;
76701;SDS011;70097;44.536;0.146;2023-12-20T20:41:19;10.53;;;4.10;;
76701;SDS011;70097;44.536;0.146;2023-12-20T20:46:51;11.80;;;3.37;;
76701;SDS011;70097;44.536;0.146;2023-12-20T20:52:25;17.30;;;4.17;;
76701;SDS011;70097;44.536;0.146;2023-12-20T20:57:58;14.87;;;4.57;;
76701;SDS011;70097;44.536;0.146;2023-12-20T21:03:31;11.67;;;3.93;;
76701;SDS011;70097;44.536;0.146;2023-12-20T21:09:03;6.60;;;2.30;;
76701;SDS011;70097;44.536;0.146;2023-12-20T21:14:37;8.87;;;2.07;;
76701;SDS011;70097;44.536;0.146;2023-12-20T21:20:10;8.57;;;2.43;;
76701;SDS011;70097;44.536;0.146;2023-12-20T21:25:43;5.73;;;1.10;;
76701;SDS011;70097;44.536;0.146;2023-12-20T21:31:16;14.10;;;3.27;;
76701;SDS011;70097;44.536;0.146;2023-12-20T21:36:50;11.83;;;3.03;;
76701;SDS011;70097;44.536;0.146;2023-12-20T21:42:24;10.57;;;2.37;;
76701;SDS011;70097;44.536;0.146;2023-12-20T21:47:57;14.17;;;2.37;;
76701;SDS011;70097;44.536;0.146;2023-12-20T21:53:29;9.67;;;1.77;;
76701;SDS011;70097;44.536;0.146;2023-12-20T21:59:01;9.77;;;3.03;;
76701;SDS011;70097;44.536;0.146;2023-12-20T22:04:34;9.20;;;2.23;;
76701;SDS011;70097;44.536;0.146;2023-12-20T22:10:07;7.13;;;1.90;;
76701;SDS011;70097;44.536;0.146;2023-12-20T22:15:39;10.13;;;2.00;;
76701;SDS011;70097;44.536;0.146;2023-12-20T22:21:12;13.03;;;2.10;;
76701;SDS011;70097;44.536;0.146;2023-12-20T22:26:46;11.07;;;2.17;;
76701;SDS011;70097;44.536;0.146;2023-12-20T22:32:19;8.23;;;1.97;;
76701;SDS011;70097;44.536;0.146;2023-12-20T22:37:52;8.77;;;2.60;;
76701;SDS011;70097;44.536;0.146;2023-12-20T22:43:25;10.33;;;2.43;;
76701;SDS011;70097;44.536;0.146;2023-12-20T22:48:58;8.63;;;2.80;;
76701;SDS011;70097;44.536;0.146;2023-12-20T22:54:30;6.23;;;2.30;;
76701;SDS011;70097;44.536;0.146;2023-12-20T23:00:05;6.53;;;1.50;;
76701;SDS011;70097;44.536;0.146;2023-12-20T23:05:37;2.90;;;1.30;;
76701;SDS011;70097;44.536;0.146;2023-12-20T23:11:09;3.17;;;1.20;;
76701;SDS011;70097;44.536;0.146;2023-12-20T23:16:42;2.80;;;0.87;;
76701;SDS011;70097;44.536;0.146;2023-12-20T23:22:15;3.87;;;1.30;;
76701;SDS011;70097;44.536;0.146;2023-12-20T23:27:49;4.70;;;1.40;;
76701;SDS011;70097;44.536;0.146;2023-12-20T23:33:22;3.80;;;1.73;;
76701;SDS011;70097;44.536;0.146;2023-12-20T23:38:55;6.43;;;1.80;;
76701;SDS011;70097;44.536;0.146;2023-12-20T23:44:28;3.57;;;1.73;;
76701;SDS011;70097;44.536;0.146;2023-12-20T23:50:01;4.83;;;1.90;;
76701;SDS011;70097;44.536;0.146;2023-12-20T23:55:34;3.83;;;1.83;;
